Airfield :
LOGIN :

Register | Disclaimer

   EN    FR    IT 

 










Legend :    VFR   Marginal VFR   IFR   Intensive IFR   Very Intensive IFR
Visi :
Ceiling :
>= 8 km
>= 3000ft
5 to 8 km
1000 to 3000 ft
1500m to 5 km
500 to 1000 ft
800 to 1500m
200 to 500 ft
< 800m
< 200 ft
Symbols :   Thunderstorms  Fog  Heavy snow  Heavy precipitations  Wind > 20 kt
SIGMETs :     Misc.  Thunderstorms  Icing  Turbulence  Mountain Waves  Volcanic Ashes







- Airport Elevation : 410 ft
- IATA code : AVB


LIPA - Aviano AB Pordenone

CURRENT METAR :
  • 221255Z 14004KT 9999 FEW030TCU SCT040 22/16 Q1015 RMK BKN VIS MIN 9999 WIND THR05 /////KT WIND THR23 /////KT A2998 BLU

EXPIRED METARs :
  • 221155Z 16005KT 9999 FEW030CB SCT040 21/16 Q1015 RMK BKN VIS MIN 9999 WIND THR05 /////KT WIND THR23 /////KT A2998 BLU
  • 221055Z 11006KT 9999 FEW020CB SCT025 BKN040 21/17 Q1015 RMK BKN VIS MIN 9999 WIND THR05 /////KT WIND THR23 /////KT A2999 BLU

TAF TAF LIPA
Valid from the 22 at 12:00 until the 22 at 21:00 UTC


221100Z 2212/2221 14012KT 9999 SCT040 BKN070
PROB30
TEMPO 2212/2216 11010G25KT 3000 SHRA FEW015CB BKN025
BECMG 2217/2219 VRB05KT 9999 FEW070
No reported NOTAMs for that airfield.
2 SIGMETs reported for the Milano FIR (LIMM) :
 
Severe turbulence
LIMM SIGMET 3 VALID 221305/221705 LIIP
LIMM MILANO FIR SEV TURB FCST E OF LINE N4623 E00834 - N4305 E00956 FL220/420 MOV ESE WKN=
Embedded thunderstorms
LIMM SIGMET 2 VALID 221125/221325 LIIP
LIMM MILANO FIR EMBD TS OBS WI N4546 E01345 - N4413 E00957 - N4338 E01125 - N4326 E01423 - N4516 E01256 - N4546 E01345 TOP FL380 MOV SE NC=



MET'MAP, your aeronautical weather chart ! - Copyright ORBIFLY December 2007 - Disclaimer

ORBIFLY MET'MAP TEAM :

Programming & Development : Alexandra Zaïnal
Concept & Development : Baudouin d'Aumeries
Co-Development & Prog : Marc-Olivier Méhu
Technical & hardware support : Manuel Goepfert

Contact : metmap@orbifly.com




SOURCES & CREDITS :

   NOAA